createdAt,value
2022-09-14T00:02:39.317Z,3.53
2022-09-14T00:06:22.531Z,3.65
2022-09-14T00:10:07.235Z,4.30
2022-09-14T00:13:53.118Z,3.53
2022-09-14T00:17:35.792Z,3.63
2022-09-14T00:21:18.425Z,3.50
2022-09-14T00:25:00.961Z,3.78
2022-09-14T00:28:45.631Z,3.30
2022-09-14T00:32:28.325Z,3.40
2022-09-14T00:36:11.740Z,3.80
2022-09-14T00:39:54.918Z,3.10
2022-09-14T00:47:49.266Z,3.77
2022-09-14T00:51:33.734Z,3.28
2022-09-14T00:55:18.756Z,3.70
2022-09-14T00:59:05.696Z,3.13
2022-09-14T01:02:49.820Z,3.70
2022-09-14T01:06:37.788Z,3.20
2022-09-14T01:10:29.443Z,3.53
2022-09-14T01:14:18.587Z,3.47
2022-09-14T01:18:08.371Z,3.55
2022-09-14T01:21:55.382Z,3.78
2022-09-14T01:26:01.808Z,3.10
2022-09-14T01:29:48.794Z,4.25
2022-09-14T01:33:35.729Z,3.70
2022-09-14T01:37:23.082Z,3.45
2022-09-14T01:41:08.764Z,3.25
2022-09-14T01:44:56.075Z,3.10
2022-09-14T01:48:41.283Z,3.25
2022-09-14T01:52:27.327Z,3.42
2022-09-14T01:56:20.110Z,3.53
2022-09-14T02:00:09.283Z,3.50
2022-09-14T02:03:56.736Z,3.08
2022-09-14T02:07:40.007Z,3.03
2022-09-14T02:11:22.850Z,2.80
2022-09-14T02:15:09.641Z,2.80
2022-09-14T02:18:52.636Z,2.75
2022-09-14T02:22:35.631Z,2.78
2022-09-14T02:26:19.001Z,3.00
2022-09-14T02:30:01.736Z,2.70
2022-09-14T02:33:52.173Z,2.77
2022-09-14T02:37:41.774Z,2.70
2022-09-14T02:41:29.142Z,2.40
2022-09-14T02:45:19.111Z,2.10
2022-09-14T02:49:07.691Z,2.30
2022-09-14T02:52:54.874Z,2.30
2022-09-14T02:56:38.329Z,2.20
2022-09-14T03:00:21.234Z,2.25
2022-09-14T03:04:05.339Z,2.00
2022-09-14T03:07:47.973Z,2.00
2022-09-14T03:11:30.684Z,2.00
2022-09-14T03:15:13.397Z,2.00
2022-09-14T03:18:56.066Z,2.00
2022-09-14T03:22:43.086Z,1.70
2022-09-14T03:26:28.996Z,2.00
2022-09-14T03:30:12.785Z,1.70
2022-09-14T03:33:56.774Z,1.65
2022-09-14T03:37:41.841Z,1.80
2022-09-14T03:41:25.209Z,1.65
2022-09-14T03:45:08.953Z,1.77
2022-09-14T03:48:51.822Z,1.67
2022-09-14T03:52:34.664Z,1.90
2022-09-14T03:56:20.321Z,1.80
2022-09-14T04:00:03.552Z,1.90
2022-09-14T04:03:46.975Z,1.70
2022-09-14T04:07:29.789Z,1.65
2022-09-14T04:11:15.174Z,1.80
2022-09-14T04:14:59.250Z,1.65
2022-09-14T04:18:41.918Z,1.90
2022-09-14T04:22:24.593Z,1.77
2022-09-14T04:26:12.309Z,1.70
2022-09-14T04:29:55.206Z,1.70
2022-09-14T04:33:40.622Z,1.75
2022-09-14T04:37:23.305Z,1.85
2022-09-14T04:41:07.539Z,1.67
2022-09-14T04:44:50.294Z,1.80
2022-09-14T04:48:35.103Z,1.90
2022-09-14T04:52:19.381Z,1.70
2022-09-14T04:56:02.557Z,1.58
2022-09-14T04:59:45.298Z,1.77
2022-09-14T05:03:28.052Z,1.90
2022-09-14T05:07:12.117Z,1.73
2022-09-14T05:10:57.609Z,1.85
2022-09-14T05:14:40.355Z,1.60
2022-09-14T05:18:23.032Z,1.65
2022-09-14T05:22:07.801Z,1.40
2022-09-14T05:25:53.816Z,1.70
2022-09-14T05:29:40.132Z,2.10
2022-09-14T05:33:23.403Z,1.73
2022-09-14T05:37:06.174Z,1.80
2022-09-14T05:40:48.912Z,1.90
2022-09-14T05:44:31.574Z,1.75
2022-09-14T05:48:15.820Z,2.10
2022-09-14T05:51:58.540Z,2.00
2022-09-14T05:55:43.914Z,2.40
2022-09-14T05:59:26.712Z,2.10
2022-09-14T06:03:09.412Z,2.35
2022-09-14T06:07:17.009Z,2.00
2022-09-14T06:10:57.991Z,2.40
2022-09-14T06:14:40.795Z,2.15
2022-09-14T06:18:23.465Z,2.00
2022-09-14T06:22:07.523Z,1.80
2022-09-14T06:25:50.190Z,1.98
2022-09-14T06:29:32.836Z,1.95
2022-09-14T06:33:15.487Z,2.00
2022-09-14T06:36:58.154Z,1.63
2022-09-14T06:40:52.127Z,2.13
2022-09-14T06:44:34.887Z,1.75
2022-09-14T06:48:17.666Z,1.80
2022-09-14T06:52:00.914Z,1.60
2022-09-14T06:55:45.404Z,2.13
2022-09-14T06:59:28.073Z,1.70
2022-09-14T07:03:10.845Z,2.10
2022-09-14T07:06:54.202Z,1.80
2022-09-14T07:10:36.866Z,1.92
2022-09-14T07:14:21.175Z,2.03
2022-09-14T07:18:04.292Z,1.95
2022-09-14T07:21:48.097Z,2.20
2022-09-14T07:25:30.788Z,1.95
2022-09-14T07:29:15.026Z,1.70
2022-09-14T07:32:59.231Z,2.10
2022-09-14T07:36:42.546Z,1.80
2022-09-14T07:40:25.819Z,1.85
2022-09-14T07:44:09.497Z,2.10
2022-09-14T07:47:52.287Z,2.10
2022-09-14T07:51:37.062Z,1.83
2022-09-14T07:55:20.195Z,1.55
2022-09-14T07:59:30.984Z,1.67
2022-09-14T08:03:06.650Z,1.50
2022-09-14T08:06:50.675Z,1.60
2022-09-14T08:10:36.104Z,2.00
2022-09-14T08:14:18.803Z,1.55
2022-09-14T08:18:02.060Z,1.70
2022-09-14T08:21:47.167Z,1.70
2022-09-14T08:25:32.133Z,1.70
2022-09-14T08:29:15.368Z,1.67
2022-09-14T08:33:01.755Z,1.65
2022-09-14T08:36:46.223Z,1.70
2022-09-14T08:40:29.119Z,1.50
2022-09-14T08:44:18.622Z,1.60
2022-09-14T08:48:01.448Z,2.03
2022-09-14T08:51:44.240Z,1.55
2022-09-14T08:55:33.137Z,1.33
2022-09-14T08:59:30.712Z,1.60
2022-09-14T09:03:42.224Z,1.50
2022-09-14T09:07:32.068Z,1.75
2022-09-14T09:11:18.026Z,1.80
2022-09-14T09:15:04.794Z,1.67
2022-09-14T09:18:51.121Z,1.90
2022-09-14T09:22:39.582Z,1.90
2022-09-14T09:26:28.261Z,1.75
2022-09-14T09:30:15.644Z,1.70
2022-09-14T09:33:58.573Z,1.75
2022-09-14T09:37:41.714Z,1.90
2022-09-14T09:41:26.541Z,1.60
2022-09-14T09:45:10.289Z,1.60
2022-09-14T09:48:54.452Z,1.77
2022-09-14T09:52:37.421Z,1.70
2022-09-14T09:56:22.417Z,1.80
2022-09-14T10:00:20.486Z,1.98
2022-09-14T10:04:17.821Z,1.70
2022-09-14T10:08:01.865Z,1.85
2022-09-14T10:11:45.456Z,2.03
2022-09-14T10:15:30.702Z,2.13
2022-09-14T10:19:16.486Z,1.90
2022-09-14T10:23:18.599Z,2.03
2022-09-14T10:27:01.387Z,2.17
2022-09-14T10:30:51.136Z,1.75
2022-09-14T10:34:35.417Z,2.00
2022-09-14T10:38:32.554Z,1.80
2022-09-14T10:42:26.497Z,1.67
2022-09-14T10:46:13.742Z,1.92
2022-09-14T10:50:08.193Z,1.85
2022-09-14T10:53:56.892Z,1.75
2022-09-14T10:57:46.974Z,1.90
2022-09-14T11:01:39.331Z,1.80
2022-09-14T11:05:29.328Z,1.60
2022-09-14T11:09:24.621Z,2.10
2022-09-14T11:13:48.429Z,2.13
2022-09-14T11:17:43.532Z,1.80
2022-09-14T11:21:35.219Z,2.15
2022-09-14T11:25:20.922Z,1.90
2022-09-14T11:29:10.487Z,1.98
2022-09-14T11:32:56.347Z,2.78
2022-09-14T11:36:44.488Z,3.20
2022-09-14T11:40:30.340Z,1.80
2022-09-14T11:44:15.405Z,1.92
2022-09-14T11:53:13.323Z,2.10
2022-09-14T11:57:02.369Z,2.47
2022-09-14T12:05:48.348Z,2.55
2022-09-14T12:10:01.985Z,2.55
2022-09-14T12:23:52.459Z,2.15
2022-09-14T12:27:38.682Z,1.50
2022-09-14T12:31:40.548Z,1.98
2022-09-14T12:35:47.319Z,2.03
2022-09-14T12:39:31.560Z,1.60
2022-09-14T12:43:52.474Z,1.60
2022-09-14T12:47:59.550Z,2.05
2022-09-14T12:51:47.322Z,2.00
2022-09-14T12:55:45.857Z,2.08
2022-09-14T12:59:35.211Z,2.50
2022-09-14T13:03:46.137Z,3.17
2022-09-14T13:07:31.988Z,2.80
2022-09-14T13:11:28.540Z,2.88
2022-09-14T13:15:19.103Z,2.15
2022-09-14T13:19:04.859Z,2.35
2022-09-14T13:22:47.521Z,2.10
2022-09-14T13:26:31.567Z,1.92
2022-09-14T13:30:22.786Z,1.80
2022-09-14T13:34:06.038Z,2.45
2022-09-14T13:37:48.780Z,2.45
2022-09-14T13:41:31.961Z,2.10
2022-09-14T13:45:14.785Z,2.70
2022-09-14T13:48:59.179Z,1.83
2022-09-14T13:53:01.108Z,2.10
2022-09-14T13:56:45.448Z,1.60
2022-09-14T14:00:28.127Z,1.67
2022-09-14T14:04:25.626Z,1.73
2022-09-14T14:08:32.440Z,1.88
2022-09-14T14:12:24.829Z,1.80
2022-09-14T14:16:16.209Z,1.60
2022-09-14T14:20:02.137Z,2.10
2022-09-14T14:24:02.833Z,1.90
2022-09-14T14:27:48.699Z,1.80
2022-09-14T14:31:31.621Z,2.15
2022-09-14T14:35:19.965Z,1.90
2022-09-14T14:39:02.717Z,2.10
2022-09-14T14:42:45.754Z,1.80
2022-09-14T14:46:29.363Z,1.77
2022-09-14T14:50:17.089Z,1.63
2022-09-14T14:54:01.287Z,1.83
2022-09-14T14:57:44.094Z,1.88
2022-09-14T15:01:26.729Z,2.88
2022-09-14T15:05:09.757Z,1.45
2022-09-14T15:08:55.531Z,1.63
2022-09-14T15:12:39.338Z,1.73
2022-09-14T15:16:22.090Z,1.40
2022-09-14T15:20:05.762Z,1.55
2022-09-14T15:23:49.795Z,2.13
2022-09-14T15:27:34.214Z,1.70
2022-09-14T15:31:17.073Z,1.70
2022-09-14T15:35:00.001Z,1.55
2022-09-14T15:38:42.750Z,1.60
2022-09-14T15:42:25.879Z,2.22
2022-09-14T15:46:10.281Z,1.42
2022-09-14T15:49:53.357Z,2.00
2022-09-14T15:53:38.177Z,1.83
2022-09-14T15:57:20.830Z,2.22
2022-09-14T16:01:09.757Z,1.73
2022-09-14T16:04:52.491Z,1.83
2022-09-14T16:08:36.129Z,2.20
2022-09-14T16:12:18.818Z,2.10
2022-09-14T16:16:06.347Z,1.60
2022-09-14T16:19:51.569Z,2.30
2022-09-14T16:23:34.778Z,2.10
2022-09-14T16:27:19.704Z,2.00
2022-09-14T16:31:09.566Z,2.78
2022-09-14T16:34:53.833Z,2.47
2022-09-14T16:38:36.962Z,2.45
2022-09-14T16:42:20.176Z,2.63
2022-09-14T16:46:05.215Z,2.67
2022-09-14T16:49:47.973Z,2.55
2022-09-14T16:53:34.618Z,2.75
2022-09-14T16:57:17.401Z,2.50
2022-09-14T17:01:06.912Z,2.75
2022-09-14T17:04:49.728Z,2.95
2022-09-14T17:08:35.338Z,2.50
2022-09-14T17:12:18.072Z,2.60
2022-09-14T17:16:05.384Z,2.42
2022-09-14T17:19:49.944Z,2.40
2022-09-14T17:23:34.296Z,2.53
2022-09-14T17:27:18.750Z,2.63
2022-09-14T17:31:02.456Z,2.65
2022-09-14T17:34:45.947Z,2.40
2022-09-14T17:38:30.443Z,2.30
2022-09-14T17:42:14.500Z,2.60
2022-09-14T17:45:58.468Z,1.98
2022-09-14T17:49:41.130Z,2.08
2022-09-14T17:53:23.869Z,2.30
2022-09-14T17:57:06.621Z,2.00
2022-09-14T18:00:50.801Z,2.30
2022-09-14T18:04:33.468Z,2.17
2022-09-14T18:08:16.457Z,2.08
2022-09-14T18:11:59.211Z,2.00
2022-09-14T18:15:41.892Z,2.03
2022-09-14T18:19:25.933Z,1.70
2022-09-14T18:23:08.723Z,1.90
2022-09-14T18:26:51.807Z,1.80
2022-09-14T18:30:34.870Z,2.03
2022-09-14T18:34:18.043Z,1.60
2022-09-14T18:38:02.096Z,2.10
2022-09-14T18:41:44.979Z,1.88
2022-09-14T18:45:27.871Z,1.80
2022-09-14T18:49:10.609Z,1.70
2022-09-14T18:52:53.612Z,1.70
2022-09-14T18:56:41.120Z,1.80
2022-09-14T19:00:24.017Z,1.63
2022-09-14T19:04:08.125Z,1.90
2022-09-14T19:07:52.535Z,1.90
2022-09-14T19:11:38.117Z,2.42
2022-09-14T19:15:20.905Z,1.95
2022-09-14T19:19:03.952Z,2.20
2022-09-14T19:22:47.953Z,2.08
2022-09-14T19:26:33.124Z,1.75
2022-09-14T19:30:17.222Z,1.60
2022-09-14T19:34:00.665Z,1.60
2022-09-14T19:37:43.581Z,2.20
2022-09-14T19:41:26.469Z,2.22
2022-09-14T19:45:12.265Z,1.90
2022-09-14T19:48:56.661Z,2.10
2022-09-14T19:52:39.570Z,1.80
2022-09-14T19:56:25.375Z,1.87
2022-09-14T20:00:13.282Z,2.00
2022-09-14T20:04:00.667Z,3.35
2022-09-14T20:07:43.656Z,2.37
2022-09-14T20:11:28.170Z,2.40
2022-09-14T20:15:11.725Z,2.20
2022-09-14T20:18:54.800Z,2.55
2022-09-14T20:22:39.127Z,2.00
2022-09-14T20:26:21.792Z,2.10
2022-09-14T20:30:06.907Z,2.20
2022-09-14T20:33:49.889Z,2.40
2022-09-14T20:37:32.601Z,2.45
2022-09-14T20:41:19.850Z,2.75
2022-09-14T20:45:02.713Z,2.78
2022-09-14T20:48:45.671Z,2.40
2022-09-14T20:52:28.465Z,2.43
2022-09-14T20:56:12.491Z,2.13
2022-09-14T20:59:57.683Z,1.90
2022-09-14T21:03:42.303Z,2.00
2022-09-14T21:07:25.516Z,1.90
2022-09-14T21:11:10.227Z,2.00
2022-09-14T21:14:52.977Z,2.10
2022-09-14T21:18:37.314Z,1.90
2022-09-14T21:22:20.345Z,2.37
2022-09-14T21:26:03.613Z,1.80
2022-09-14T21:29:47.614Z,2.13
2022-09-14T21:33:30.304Z,1.70
2022-09-14T21:37:14.330Z,1.90
2022-09-14T21:40:57.146Z,1.97
2022-09-14T21:44:39.867Z,1.90
2022-09-14T21:48:22.518Z,1.90
2022-09-14T21:52:05.511Z,2.13
2022-09-14T21:55:49.631Z,1.90
2022-09-14T21:59:32.403Z,1.90
2022-09-14T22:03:15.158Z,1.60
2022-09-14T22:06:59.284Z,1.90
2022-09-14T22:10:42.130Z,1.70
2022-09-14T22:14:29.525Z,1.50
2022-09-14T22:18:12.193Z,1.35
2022-09-14T22:21:55.249Z,1.50
2022-09-14T22:25:42.552Z,1.30
2022-09-14T22:29:26.648Z,1.40
2022-09-14T22:33:10.225Z,1.30
2022-09-14T22:36:52.979Z,1.50
2022-09-14T22:40:35.700Z,1.50
2022-09-14T22:44:18.478Z,1.40
2022-09-14T22:48:03.042Z,1.57
2022-09-14T22:51:45.737Z,1.57
2022-09-14T22:55:28.482Z,1.23
2022-09-14T22:59:11.579Z,1.50
2022-09-14T23:02:54.302Z,1.47
2022-09-14T23:06:40.470Z,1.53
2022-09-14T23:10:23.308Z,1.10
2022-09-14T23:14:06.065Z,1.60
2022-09-14T23:17:52.014Z,1.40
2022-09-14T23:21:35.417Z,1.30
2022-09-14T23:25:19.542Z,1.50
2022-09-14T23:29:04.739Z,1.77
2022-09-14T23:32:47.377Z,1.70
2022-09-14T23:36:30.242Z,1.50
2022-09-14T23:40:13.044Z,1.30
2022-09-14T23:43:57.391Z,1.60
2022-09-14T23:47:40.258Z,1.40
2022-09-14T23:51:22.947Z,1.60
2022-09-14T23:55:06.531Z,1.47
2022-09-14T23:58:49.222Z,1.37
